sensor_id;sensor_type;location;lat;lon;timestamp;pressure;altitude;pressure_sealevel;temperature;humidity
31483;BME280;18103;52.246;8.052;2023-02-15T00:01:30;101790.31;;;4.84;80.07
31483;BME280;18103;52.246;8.052;2023-02-15T00:03:56;101791.56;;;4.72;79.66
31483;BME280;18103;52.246;8.052;2023-02-15T00:06:22;101790.91;;;4.63;80.24
31483;BME280;18103;52.246;8.052;2023-02-15T00:08:48;101779.72;;;4.58;80.12
31483;BME280;18103;52.246;8.052;2023-02-15T00:11:15;101786.72;;;4.58;80.24
31483;BME280;18103;52.246;8.052;2023-02-15T00:13:41;101790.56;;;4.46;80.09
31483;BME280;18103;52.246;8.052;2023-02-15T00:16:11;101781.72;;;4.50;79.87
31483;BME280;18103;52.246;8.052;2023-02-15T00:18:40;101776.63;;;4.45;80.02
31483;BME280;18103;52.246;8.052;2023-02-15T00:21:08;101768.78;;;4.45;80.07
31483;BME280;18103;52.246;8.052;2023-02-15T00:23:33;101774.81;;;4.48;80.75
31483;BME280;18103;52.246;8.052;2023-02-15T00:26:12;101778.16;;;4.53;80.48
31483;BME280;18103;52.246;8.052;2023-02-15T00:28:38;101773.28;;;4.40;80.17
31483;BME280;18103;52.246;8.052;2023-02-15T00:31:08;101776.06;;;4.36;80.57
31483;BME280;18103;52.246;8.052;2023-02-15T00:33:35;101772.72;;;4.31;80.76
31483;BME280;18103;52.246;8.052;2023-02-15T00:36:01;101771.13;;;4.25;81.34
31483;BME280;18103;52.246;8.052;2023-02-15T00:38:30;101772.00;;;4.25;80.79
31483;BME280;18103;52.246;8.052;2023-02-15T00:40:57;101775.66;;;4.20;80.89
31483;BME280;18103;52.246;8.052;2023-02-15T00:43:23;101772.44;;;4.10;81.24
31483;BME280;18103;52.246;8.052;2023-02-15T00:45:48;101774.03;;;4.16;80.83
31483;BME280;18103;52.246;8.052;2023-02-15T00:48:14;101774.97;;;4.13;80.72
31483;BME280;18103;52.246;8.052;2023-02-15T00:50:39;101768.97;;;4.09;80.39
31483;BME280;18103;52.246;8.052;2023-02-15T00:53:05;101765.75;;;4.00;81.13
31483;BME280;18103;52.246;8.052;2023-02-15T00:55:31;101762.38;;;3.96;81.46
31483;BME280;18103;52.246;8.052;2023-02-15T00:57:56;101756.31;;;3.94;81.74
31483;BME280;18103;52.246;8.052;2023-02-15T01:00:21;101746.81;;;3.91;81.24
31483;BME280;18103;52.246;8.052;2023-02-15T01:02:47;101746.94;;;3.87;81.69
31483;BME280;18103;52.246;8.052;2023-02-15T01:05:12;101744.19;;;3.91;81.11
31483;BME280;18103;52.246;8.052;2023-02-15T01:07:38;101743.56;;;3.83;80.75
31483;BME280;18103;52.246;8.052;2023-02-15T01:10:05;101753.44;;;3.72;81.14
31483;BME280;18103;52.246;8.052;2023-02-15T01:12:31;101747.47;;;3.68;81.33
31483;BME280;18103;52.246;8.052;2023-02-15T01:14:56;101737.72;;;3.75;81.51
31483;BME280;18103;52.246;8.052;2023-02-15T01:17:22;101744.69;;;3.74;81.70
31483;BME280;18103;52.246;8.052;2023-02-15T01:19:47;101737.63;;;3.78;81.69
31483;BME280;18103;52.246;8.052;2023-02-15T01:22:12;101731.66;;;3.73;81.45
31483;BME280;18103;52.246;8.052;2023-02-15T01:24:38;101730.81;;;3.72;80.98
31483;BME280;18103;52.246;8.052;2023-02-15T01:27:03;101733.56;;;3.66;81.47
31483;BME280;18103;52.246;8.052;2023-02-15T01:29:28;101727.56;;;3.64;81.08
31483;BME280;18103;52.246;8.052;2023-02-15T01:31:54;101734.59;;;3.60;80.98
31483;BME280;18103;52.246;8.052;2023-02-15T01:34:19;101731.09;;;3.62;81.26
31483;BME280;18103;52.246;8.052;2023-02-15T01:36:44;101719.88;;;3.58;80.83
31483;BME280;18103;52.246;8.052;2023-02-15T01:39:11;101727.09;;;3.48;80.83
31483;BME280;18103;52.246;8.052;2023-02-15T01:41:36;101721.91;;;3.47;81.32
31483;BME280;18103;52.246;8.052;2023-02-15T01:44:02;101725.44;;;3.46;81.39
31483;BME280;18103;52.246;8.052;2023-02-15T01:46:38;101721.22;;;3.40;81.67
31483;BME280;18103;52.246;8.052;2023-02-15T01:49:12;101722.94;;;3.41;81.29
31483;BME280;18103;52.246;8.052;2023-02-15T01:51:40;101726.59;;;3.34;80.63
31483;BME280;18103;52.246;8.052;2023-02-15T01:54:29;101720.63;;;3.29;81.45
31483;BME280;18103;52.246;8.052;2023-02-15T01:56:59;101723.22;;;3.30;81.77
31483;BME280;18103;52.246;8.052;2023-02-15T01:59:26;101715.63;;;3.21;81.16
31483;BME280;18103;52.246;8.052;2023-02-15T02:01:55;101714.75;;;3.22;81.99
31483;BME280;18103;52.246;8.052;2023-02-15T02:04:32;101703.53;;;3.18;81.81
31483;BME280;18103;52.246;8.052;2023-02-15T02:07:00;101700.75;;;3.24;81.99
31483;BME280;18103;52.246;8.052;2023-02-15T02:09:26;101702.63;;;3.19;81.77
31483;BME280;18103;52.246;8.052;2023-02-15T02:11:51;101694.97;;;3.12;82.24
31483;BME280;18103;52.246;8.052;2023-02-15T02:14:19;101691.44;;;3.14;82.09
31483;BME280;18103;52.246;8.052;2023-02-15T02:17:24;101682.69;;;3.17;82.46
31483;BME280;18103;52.246;8.052;2023-02-15T02:20:28;101675.66;;;3.19;81.97
31483;BME280;18103;52.246;8.052;2023-02-15T02:31:41;101676.31;;;2.94;82.71
31483;BME280;18103;52.246;8.052;2023-02-15T02:37:06;101656.91;;;3.04;82.36
31483;BME280;18103;52.246;8.052;2023-02-15T02:39:40;101656.38;;;2.91;82.53
31483;BME280;18103;52.246;8.052;2023-02-15T02:42:27;101664.25;;;2.90;82.74
31483;BME280;18103;52.246;8.052;2023-02-15T02:45:06;101667.47;;;3.00;82.05
31483;BME280;18103;52.246;8.052;2023-02-15T02:48:18;101652.06;;;2.90;82.11
31483;BME280;18103;52.246;8.052;2023-02-15T02:50:27;101653.22;;;2.79;82.81
31483;BME280;18103;52.246;8.052;2023-02-15T02:52:55;101663.53;;;2.83;82.76
31483;BME280;18103;52.246;8.052;2023-02-15T02:55:37;101664.34;;;2.85;82.12
31483;BME280;18103;52.246;8.052;2023-02-15T02:58:31;101675.91;;;2.75;82.40
31483;BME280;18103;52.246;8.052;2023-02-15T03:01:10;101664.38;;;2.84;81.52
31483;BME280;18103;52.246;8.052;2023-02-15T03:03:41;101663.56;;;2.82;81.79
31483;BME280;18103;52.246;8.052;2023-02-15T03:09:03;101657.56;;;2.78;82.24
31483;BME280;18103;52.246;8.052;2023-02-15T03:11:32;101664.59;;;2.76;82.36
31483;BME280;18103;52.246;8.052;2023-02-15T03:13:57;101663.31;;;2.56;82.05
31483;BME280;18103;52.246;8.052;2023-02-15T03:16:23;101664.06;;;2.62;82.15
31483;BME280;18103;52.246;8.052;2023-02-15T03:19:04;101665.03;;;2.56;81.93
31483;BME280;18103;52.246;8.052;2023-02-15T03:21:39;101665.75;;;2.63;81.81
31483;BME280;18103;52.246;8.052;2023-02-15T03:24:12;101657.38;;;2.50;82.19
31483;BME280;18103;52.246;8.052;2023-02-15T03:26:43;101650.53;;;2.46;82.42
31483;BME280;18103;52.246;8.052;2023-02-15T03:29:11;101651.25;;;2.52;82.12
31483;BME280;18103;52.246;8.052;2023-02-15T03:31:40;101648.94;;;2.40;82.20
31483;BME280;18103;52.246;8.052;2023-02-15T03:34:10;101652.28;;;2.45;82.25
31483;BME280;18103;52.246;8.052;2023-02-15T03:37:01;101647.88;;;2.47;82.08
31483;BME280;18103;52.246;8.052;2023-02-15T03:42:33;101636.06;;;2.34;82.19
31483;BME280;18103;52.246;8.052;2023-02-15T03:45:06;101629.19;;;2.30;82.20
31483;BME280;18103;52.246;8.052;2023-02-15T03:47:40;101629.19;;;2.30;81.84
31483;BME280;18103;52.246;8.052;2023-02-15T03:50:08;101627.78;;;2.15;82.39
31483;BME280;18103;52.246;8.052;2023-02-15T03:52:57;101630.44;;;2.13;82.57
31483;BME280;18103;52.246;8.052;2023-02-15T03:55:23;101625.34;;;2.09;82.37
31483;BME280;18103;52.246;8.052;2023-02-15T03:57:49;101631.50;;;2.04;82.63
31483;BME280;18103;52.246;8.052;2023-02-15T04:00:36;101639.28;;;2.06;81.82
31483;BME280;18103;52.246;8.052;2023-02-15T04:03:32;101627.88;;;2.12;82.01
31483;BME280;18103;52.246;8.052;2023-02-15T04:06:00;101628.59;;;2.17;81.25
31483;BME280;18103;52.246;8.052;2023-02-15T04:08:25;101629.50;;;2.16;82.07
31483;BME280;18103;52.246;8.052;2023-02-15T04:11:11;101624.47;;;2.08;82.03
31483;BME280;18103;52.246;8.052;2023-02-15T04:13:36;101637.44;;;2.10;82.26
31483;BME280;18103;52.246;8.052;2023-02-15T04:16:01;101631.38;;;2.09;82.14
31483;BME280;18103;52.246;8.052;2023-02-15T04:18:36;101633.34;;;1.99;82.02
31483;BME280;18103;52.246;8.052;2023-02-15T04:21:22;101636.88;;;1.97;82.79
31483;BME280;18103;52.246;8.052;2023-02-15T04:24:07;101631.81;;;1.91;82.84
31483;BME280;18103;52.246;8.052;2023-02-15T04:26:51;101639.72;;;1.84;83.35
31483;BME280;18103;52.246;8.052;2023-02-15T04:29:21;101639.66;;;1.89;83.01
31483;BME280;18103;52.246;8.052;2023-02-15T04:31:47;101648.41;;;1.85;82.76
31483;BME280;18103;52.246;8.052;2023-02-15T04:34:13;101628.34;;;1.88;82.43
31483;BME280;18103;52.246;8.052;2023-02-15T04:36:39;101629.16;;;1.92;82.17
31483;BME280;18103;52.246;8.052;2023-02-15T04:39:06;101627.41;;;1.93;82.07
31483;BME280;18103;52.246;8.052;2023-02-15T04:41:32;101624.66;;;2.00;82.34
31483;BME280;18103;52.246;8.052;2023-02-15T04:43:57;101623.22;;;1.85;82.68
31483;BME280;18103;52.246;8.052;2023-02-15T04:46:23;101620.81;;;1.76;83.08
31483;BME280;18103;52.246;8.052;2023-02-15T04:48:48;101619.91;;;1.77;82.94
31483;BME280;18103;52.246;8.052;2023-02-15T04:51:14;101620.72;;;1.81;82.64
31483;BME280;18103;52.246;8.052;2023-02-15T04:53:39;101617.44;;;1.73;82.85
31483;BME280;18103;52.246;8.052;2023-02-15T04:56:05;101620.91;;;1.71;82.76
31483;BME280;18103;52.246;8.052;2023-02-15T04:58:30;101614.66;;;1.80;82.55
31483;BME280;18103;52.246;8.052;2023-02-15T05:00:57;101615.63;;;1.75;82.76
31483;BME280;18103;52.246;8.052;2023-02-15T05:03:23;101611.31;;;1.75;83.02
31483;BME280;18103;52.246;8.052;2023-02-15T05:05:48;101609.50;;;1.77;82.48
31483;BME280;18103;52.246;8.052;2023-02-15T05:08:14;101607.72;;;1.81;82.44
31483;BME280;18103;52.246;8.052;2023-02-15T05:10:39;101601.16;;;1.63;83.03
31483;BME280;18103;52.246;8.052;2023-02-15T05:13:04;101598.59;;;1.61;83.03
31483;BME280;18103;52.246;8.052;2023-02-15T05:15:30;101604.56;;;1.65;83.12
31483;BME280;18103;52.246;8.052;2023-02-15T05:17:55;101604.56;;;1.65;82.50
31483;BME280;18103;52.246;8.052;2023-02-15T05:20:20;101607.28;;;1.60;83.29
31483;BME280;18103;52.246;8.052;2023-02-15T05:22:46;101608.81;;;1.69;82.01
31483;BME280;18103;52.246;8.052;2023-02-15T05:25:11;101602.75;;;1.68;81.87
31483;BME280;18103;52.246;8.052;2023-02-15T05:27:55;101602.19;;;1.54;82.45
31483;BME280;18103;52.246;8.052;2023-02-15T05:30:39;101595.09;;;1.61;82.24
31483;BME280;18103;52.246;8.052;2023-02-15T05:33:06;101594.28;;;1.59;83.00
31483;BME280;18103;52.246;8.052;2023-02-15T05:35:32;101590.88;;;1.55;82.50
31483;BME280;18103;52.246;8.052;2023-02-15T05:37:57;101590.03;;;1.54;82.31
31483;BME280;18103;52.246;8.052;2023-02-15T05:40:23;101597.91;;;1.51;82.54
31483;BME280;18103;52.246;8.052;2023-02-15T05:42:48;101587.53;;;1.50;82.74
31483;BME280;18103;52.246;8.052;2023-02-15T05:45:13;101589.13;;;1.57;82.21
31483;BME280;18103;52.246;8.052;2023-02-15T05:47:39;101591.13;;;1.43;82.78
31483;BME280;18103;52.246;8.052;2023-02-15T05:50:05;101585.78;;;1.50;82.25
31483;BME280;18103;52.246;8.052;2023-02-15T05:52:31;101580.63;;;1.49;82.54
31483;BME280;18103;52.246;8.052;2023-02-15T05:54:56;101590.41;;;1.36;83.26
31483;BME280;18103;52.246;8.052;2023-02-15T05:57:23;101584.09;;;1.48;82.72
31483;BME280;18103;52.246;8.052;2023-02-15T05:59:48;101584.25;;;1.42;82.55
31483;BME280;18103;52.246;8.052;2023-02-15T06:02:13;101577.41;;;1.36;83.12
31483;BME280;18103;52.246;8.052;2023-02-15T06:04:39;101576.66;;;1.29;83.28
31483;BME280;18103;52.246;8.052;2023-02-15T06:07:04;101570.56;;;1.32;83.33
31483;BME280;18103;52.246;8.052;2023-02-15T06:09:29;101562.72;;;1.33;82.44
31483;BME280;18103;52.246;8.052;2023-02-15T06:11:55;101573.97;;;1.34;83.12
31483;BME280;18103;52.246;8.052;2023-02-15T06:14:20;101582.69;;;1.31;83.69
31483;BME280;18103;52.246;8.052;2023-02-15T06:16:46;101576.72;;;1.28;83.23
31483;BME280;18103;52.246;8.052;2023-02-15T06:19:11;101572.34;;;1.28;82.92
31483;BME280;18103;52.246;8.052;2023-02-15T06:21:36;101569.72;;;1.30;83.06
31483;BME280;18103;52.246;8.052;2023-02-15T06:24:02;101580.28;;;1.22;83.43
31483;BME280;18103;52.246;8.052;2023-02-15T06:26:28;101577.47;;;1.31;82.75
31483;BME280;18103;52.246;8.052;2023-02-15T06:28:53;101576.06;;;1.16;84.11
31483;BME280;18103;52.246;8.052;2023-02-15T06:31:18;101584.56;;;1.25;83.41
31483;BME280;18103;52.246;8.052;2023-02-15T06:33:44;101572.50;;;1.21;83.63
31483;BME280;18103;52.246;8.052;2023-02-15T06:36:09;101581.03;;;1.27;83.41
31483;BME280;18103;52.246;8.052;2023-02-15T06:38:34;101577.75;;;1.19;83.36
31483;BME280;18103;52.246;8.052;2023-02-15T06:41:00;101580.41;;;1.14;83.68
31483;BME280;18103;52.246;8.052;2023-02-15T06:43:25;101582.94;;;1.17;83.63
31483;BME280;18103;52.246;8.052;2023-02-15T06:45:51;101581.84;;;1.31;82.19
31483;BME280;18103;52.246;8.052;2023-02-15T06:48:16;101584.41;;;1.32;82.07
31483;BME280;18103;52.246;8.052;2023-02-15T06:50:41;101576.00;;;1.19;82.54
31483;BME280;18103;52.246;8.052;2023-02-15T06:53:07;101585.66;;;1.13;83.55
31483;BME280;18103;52.246;8.052;2023-02-15T06:55:32;101584.78;;;1.14;83.14
31483;BME280;18103;52.246;8.052;2023-02-15T06:57:57;101575.25;;;1.13;83.13
31483;BME280;18103;52.246;8.052;2023-02-15T07:00:23;101584.94;;;1.05;83.44
31483;BME280;18103;52.246;8.052;2023-02-15T07:02:56;101579.59;;;1.12;82.71
31483;BME280;18103;52.246;8.052;2023-02-15T07:05:23;101582.28;;;1.09;83.46
31483;BME280;18103;52.246;8.052;2023-02-15T07:07:48;101583.91;;;1.15;83.02
31483;BME280;18103;52.246;8.052;2023-02-15T07:10:14;101581.19;;;1.19;83.57
31483;BME280;18103;52.246;8.052;2023-02-15T07:12:39;101577.63;;;1.25;83.52
31483;BME280;18103;52.246;8.052;2023-02-15T07:15:13;101579.38;;;1.25;84.09
31483;BME280;18103;52.246;8.052;2023-02-15T07:17:39;101582.81;;;1.25;84.20
31483;BME280;18103;52.246;8.052;2023-02-15T07:20:08;101585.31;;;1.30;84.13
31483;BME280;18103;52.246;8.052;2023-02-15T07:22:34;101582.59;;;1.38;83.98
31483;BME280;18103;52.246;8.052;2023-02-15T07:25:02;101576.28;;;1.48;84.16
31483;BME280;18103;52.246;8.052;2023-02-15T07:27:28;101581.09;;;1.66;83.69
31483;BME280;18103;52.246;8.052;2023-02-15T07:29:53;101583.59;;;1.73;83.18
31483;BME280;18103;52.246;8.052;2023-02-15T07:32:18;101574.50;;;1.92;82.31
31483;BME280;18103;52.246;8.052;2023-02-15T07:34:44;101573.34;;;2.04;82.24
31483;BME280;18103;52.246;8.052;2023-02-15T07:37:09;101569.50;;;2.20;81.86
31483;BME280;18103;52.246;8.052;2023-02-15T07:39:34;101560.25;;;2.43;81.25
31483;BME280;18103;52.246;8.052;2023-02-15T07:42:00;101559.94;;;2.55;80.79
31483;BME280;18103;52.246;8.052;2023-02-15T07:44:26;101562.28;;;2.66;79.90
31483;BME280;18103;52.246;8.052;2023-02-15T07:46:51;101553.38;;;2.75;80.58
31483;BME280;18103;52.246;8.052;2023-02-15T07:49:16;101552.88;;;2.94;79.62
31483;BME280;18103;52.246;8.052;2023-02-15T07:51:42;101551.19;;;2.93;79.17
31483;BME280;18103;52.246;8.052;2023-02-15T07:54:07;101540.56;;;2.99;79.37
31483;BME280;18103;52.246;8.052;2023-02-15T07:56:33;101540.28;;;3.10;78.91
31483;BME280;18103;52.246;8.052;2023-02-15T07:58:59;101536.41;;;3.23;78.85
31483;BME280;18103;52.246;8.052;2023-02-15T08:01:36;101540.25;;;3.41;77.89
31483;BME280;18103;52.246;8.052;2023-02-15T08:04:04;101530.59;;;3.45;77.55
31483;BME280;18103;52.246;8.052;2023-02-15T08:06:32;101536.09;;;3.64;77.75
31483;BME280;18103;52.246;8.052;2023-02-15T08:08:58;101539.91;;;3.82;76.50
31483;BME280;18103;52.246;8.052;2023-02-15T08:11:28;101536.19;;;3.89;76.52
31483;BME280;18103;52.246;8.052;2023-02-15T08:16:34;101532.84;;;4.39;76.12
31483;BME280;18103;52.246;8.052;2023-02-15T08:21:51;101528.72;;;4.58;75.69
31483;BME280;18103;52.246;8.052;2023-02-15T08:24:19;101518.72;;;4.70;74.37
31483;BME280;18103;52.246;8.052;2023-02-15T08:26:45;101515.81;;;4.79;73.81
31483;BME280;18103;52.246;8.052;2023-02-15T08:29:12;101515.25;;;4.94;73.15
31483;BME280;18103;52.246;8.052;2023-02-15T08:31:37;101520.09;;;5.05;72.82
31483;BME280;18103;52.246;8.052;2023-02-15T08:34:04;101519.81;;;5.13;72.85
31483;BME280;18103;52.246;8.052;2023-02-15T08:36:30;101523.19;;;5.17;72.92
31483;BME280;18103;52.246;8.052;2023-02-15T08:38:58;101519.03;;;5.35;72.05
31483;BME280;18103;52.246;8.052;2023-02-15T08:41:26;101522.88;;;5.48;71.63
31483;BME280;18103;52.246;8.052;2023-02-15T08:43:57;101520.03;;;5.54;72.16
31483;BME280;18103;52.246;8.052;2023-02-15T08:46:24;101521.88;;;5.74;72.59
31483;BME280;18103;52.246;8.052;2023-02-15T08:48:50;101513.16;;;5.74;72.12
31483;BME280;18103;52.246;8.052;2023-02-15T08:51:18;101509.06;;;5.89;71.28
31483;BME280;18103;52.246;8.052;2023-02-15T08:53:46;101504.50;;;5.94;70.36
31483;BME280;18103;52.246;8.052;2023-02-15T08:56:15;101502.66;;;5.97;70.17
31483;BME280;18103;52.246;8.052;2023-02-15T08:58:40;101495.88;;;5.92;70.48
31483;BME280;18103;52.246;8.052;2023-02-15T09:01:14;101495.22;;;6.09;70.20
31483;BME280;18103;52.246;8.052;2023-02-15T09:03:44;101477.91;;;6.25;69.58
31483;BME280;18103;52.246;8.052;2023-02-15T09:06:10;101488.00;;;6.34;69.15
31483;BME280;18103;52.246;8.052;2023-02-15T09:08:36;101481.66;;;6.40;69.32
31483;BME280;18103;52.246;8.052;2023-02-15T09:11:28;101475.53;;;6.60;69.53
31483;BME280;18103;52.246;8.052;2023-02-15T09:13:56;101473.50;;;6.67;68.75
31483;BME280;18103;52.246;8.052;2023-02-15T09:16:24;101475.66;;;6.78;69.15
31483;BME280;18103;52.246;8.052;2023-02-15T09:18:51;101471.69;;;6.88;69.03
31483;BME280;18103;52.246;8.052;2023-02-15T09:21:19;101472.81;;;6.82;69.06
31483;BME280;18103;52.246;8.052;2023-02-15T09:23:47;101467.03;;;6.95;68.77
31483;BME280;18103;52.246;8.052;2023-02-15T09:26:15;101469.84;;;7.11;68.08
31483;BME280;18103;52.246;8.052;2023-02-15T09:28:41;101477.69;;;7.30;67.31
31483;BME280;18103;52.246;8.052;2023-02-15T09:31:16;101477.75;;;7.28;67.75
31483;BME280;18103;52.246;8.052;2023-02-15T09:33:43;101476.78;;;7.50;67.45
31483;BME280;18103;52.246;8.052;2023-02-15T09:36:20;101473.03;;;7.54;67.21
31483;BME280;18103;52.246;8.052;2023-02-15T09:39:00;101479.25;;;7.53;67.58
31483;BME280;18103;52.246;8.052;2023-02-15T09:42:03;101469.72;;;7.69;67.49
31483;BME280;18103;52.246;8.052;2023-02-15T09:47:56;101465.72;;;7.61;67.20
31483;BME280;18103;52.246;8.052;2023-02-15T09:53:54;101461.72;;;8.08;66.94
31483;BME280;18103;52.246;8.052;2023-02-15T09:56:34;101460.84;;;8.07;67.48
31483;BME280;18103;52.246;8.052;2023-02-15T10:05:19;101473.22;;;8.22;66.37
31483;BME280;18103;52.246;8.052;2023-02-15T10:27:48;101466.31;;;8.72;66.04
31483;BME280;18103;52.246;8.052;2023-02-15T10:30:25;101467.13;;;8.90;67.87
31483;BME280;18103;52.246;8.052;2023-02-15T10:33:04;101470.66;;;8.73;66.57
31483;BME280;18103;52.246;8.052;2023-02-15T10:38:37;101469.88;;;9.05;65.94
31483;BME280;18103;52.246;8.052;2023-02-15T10:41:25;101468.53;;;9.14;66.89
31483;BME280;18103;52.246;8.052;2023-02-15T11:02:57;101453.41;;;10.56;64.37
31483;BME280;18103;52.246;8.052;2023-02-15T11:07:59;101453.59;;;10.68;63.99
31483;BME280;18103;52.246;8.052;2023-02-15T11:10:36;101463.88;;;10.58;63.53
31483;BME280;18103;52.246;8.052;2023-02-15T11:13:12;101463.69;;;10.90;63.46
31483;BME280;18103;52.246;8.052;2023-02-15T11:16:20;101460.75;;;10.94;63.25
31483;BME280;18103;52.246;8.052;2023-02-15T11:18:38;101452.88;;;11.22;63.50
31483;BME280;18103;52.246;8.052;2023-02-15T11:21:22;101447.34;;;11.12;61.13
31483;BME280;18103;52.246;8.052;2023-02-15T11:23:48;101447.03;;;11.31;63.13
31483;BME280;18103;52.246;8.052;2023-02-15T11:26:19;101450.03;;;11.39;62.55
31483;BME280;18103;52.246;8.052;2023-02-15T11:29:10;101439.06;;;11.73;62.12
31483;BME280;18103;52.246;8.052;2023-02-15T11:31:51;101431.66;;;12.05;60.53
31483;BME280;18103;52.246;8.052;2023-02-15T11:36:50;101420.97;;;12.20;64.07
31483;BME280;18103;52.246;8.052;2023-02-15T11:39:18;101418.75;;;12.39;60.59
31483;BME280;18103;52.246;8.052;2023-02-15T11:41:53;101410.69;;;12.02;58.23
31483;BME280;18103;52.246;8.052;2023-02-15T11:44:33;101414.84;;;12.32;58.62
31483;BME280;18103;52.246;8.052;2023-02-15T11:47:01;101413.56;;;12.38;58.50
31483;BME280;18103;52.246;8.052;2023-02-15T11:49:30;101414.50;;;12.11;57.72
31483;BME280;18103;52.246;8.052;2023-02-15T11:51:57;101419.41;;;12.30;57.14
31483;BME280;18103;52.246;8.052;2023-02-15T11:54:33;101412.28;;;12.18;58.74
31483;BME280;18103;52.246;8.052;2023-02-15T11:57:12;101406.78;;;12.33;57.58
31483;BME280;18103;52.246;8.052;2023-02-15T11:59:41;101401.16;;;12.12;57.70
31483;BME280;18103;52.246;8.052;2023-02-15T12:02:21;101402.97;;;12.50;60.51
31483;BME280;18103;52.246;8.052;2023-02-15T12:05:17;101404.28;;;13.32;60.45
31483;BME280;18103;52.246;8.052;2023-02-15T12:08:08;101395.34;;;13.33;58.01
31483;BME280;18103;52.246;8.052;2023-02-15T12:10:40;101389.81;;;12.75;57.81
31483;BME280;18103;52.246;8.052;2023-02-15T12:13:11;101386.69;;;12.94;56.69
31483;BME280;18103;52.246;8.052;2023-02-15T12:15:41;101393.34;;;12.99;58.74
31483;BME280;18103;52.246;8.052;2023-02-15T12:18:19;101386.19;;;12.76;55.48
31483;BME280;18103;52.246;8.052;2023-02-15T12:20:45;101390.31;;;12.80;56.77
31483;BME280;18103;52.246;8.052;2023-02-15T12:23:15;101378.44;;;12.86;55.44
31483;BME280;18103;52.246;8.052;2023-02-15T12:25:54;101381.97;;;12.60;55.71
31483;BME280;18103;52.246;8.052;2023-02-15T12:28:33;101373.34;;;12.82;56.57
31483;BME280;18103;52.246;8.052;2023-02-15T12:31:00;101378.72;;;12.94;55.53
31483;BME280;18103;52.246;8.052;2023-02-15T12:33:31;101366.50;;;13.41;56.95
31483;BME280;18103;52.246;8.052;2023-02-15T12:36:08;101361.44;;;13.38;54.92
31483;BME280;18103;52.246;8.052;2023-02-15T12:38:34;101362.13;;;13.16;53.74
31483;BME280;18103;52.246;8.052;2023-02-15T12:41:36;101356.97;;;13.39;55.07
31483;BME280;18103;52.246;8.052;2023-02-15T12:44:18;101359.50;;;13.40;54.77
31483;BME280;18103;52.246;8.052;2023-02-15T12:47:16;101360.00;;;13.45;52.55
31483;BME280;18103;52.246;8.052;2023-02-15T12:49:43;101352.22;;;13.55;54.42
31483;BME280;18103;52.246;8.052;2023-02-15T12:54:45;101352.41;;;13.76;54.25
31483;BME280;18103;52.246;8.052;2023-02-15T13:00:11;101341.84;;;13.52;52.68
31483;BME280;18103;52.246;8.052;2023-02-15T13:02:50;101334.53;;;13.67;52.33
31483;BME280;18103;52.246;8.052;2023-02-15T13:05:18;101336.09;;;13.69;52.71
31483;BME280;18103;52.246;8.052;2023-02-15T13:07:50;101332.41;;;13.95;53.12
31483;BME280;18103;52.246;8.052;2023-02-15T13:10:29;101328.53;;;13.88;52.82
31483;BME280;18103;52.246;8.052;2023-02-15T13:12:56;101329.47;;;13.75;52.38
31483;BME280;18103;52.246;8.052;2023-02-15T13:15:29;101329.19;;;14.14;54.20
31483;BME280;18103;52.246;8.052;2023-02-15T13:17:57;101326.88;;;13.86;53.23
31483;BME280;18103;52.246;8.052;2023-02-15T13:20:25;101324.94;;;13.89;53.27
31483;BME280;18103;52.246;8.052;2023-02-15T13:22:57;101330.63;;;14.29;54.62
31483;BME280;18103;52.246;8.052;2023-02-15T13:25:29;101323.16;;;14.23;52.48
31483;BME280;18103;52.246;8.052;2023-02-15T13:28:01;101316.97;;;13.89;53.61
31483;BME280;18103;52.246;8.052;2023-02-15T13:30:31;101303.00;;;14.09;53.96
31483;BME280;18103;52.246;8.052;2023-02-15T13:33:06;101312.91;;;14.41;53.42
31483;BME280;18103;52.246;8.052;2023-02-15T13:35:41;101314.34;;;14.34;52.09
31483;BME280;18103;52.246;8.052;2023-02-15T13:38:34;101312.41;;;14.25;52.41
31483;BME280;18103;52.246;8.052;2023-02-15T13:41:09;101308.91;;;14.24;52.85
31483;BME280;18103;52.246;8.052;2023-02-15T13:43:59;101295.28;;;14.40;52.95
31483;BME280;18103;52.246;8.052;2023-02-15T13:46:45;101301.31;;;14.19;51.90
31483;BME280;18103;52.246;8.052;2023-02-15T13:52:21;101285.22;;;14.78;52.25
31483;BME280;18103;52.246;8.052;2023-02-15T14:00:46;101281.03;;;14.30;52.19
31483;BME280;18103;52.246;8.052;2023-02-15T14:06:26;101276.81;;;14.38;52.17
31483;BME280;18103;52.246;8.052;2023-02-15T14:12:10;101274.72;;;14.42;53.07
31483;BME280;18103;52.246;8.052;2023-02-15T14:17:49;101288.03;;;14.65;54.63
31483;BME280;18103;52.246;8.052;2023-02-15T14:25:45;101281.38;;;14.14;52.79
31483;BME280;18103;52.246;8.052;2023-02-15T14:31:10;101268.94;;;13.92;53.38
31483;BME280;18103;52.246;8.052;2023-02-15T14:33:43;101268.13;;;13.91;53.03
31483;BME280;18103;52.246;8.052;2023-02-15T14:36:16;101261.34;;;13.98;53.31
31483;BME280;18103;52.246;8.052;2023-02-15T14:39:11;101264.63;;;13.91;53.22
31483;BME280;18103;52.246;8.052;2023-02-15T14:42:07;101256.41;;;13.82;53.39
31483;BME280;18103;52.246;8.052;2023-02-15T14:44:39;101248.91;;;13.65;53.21
31483;BME280;18103;52.246;8.052;2023-02-15T14:47:24;101242.75;;;13.53;52.88
31483;BME280;18103;52.246;8.052;2023-02-15T14:49:51;101248.50;;;13.58;53.36
31483;BME280;18103;52.246;8.052;2023-02-15T14:52:17;101246.13;;;13.66;53.49
31483;BME280;18103;52.246;8.052;2023-02-15T14:59:49;101240.91;;;13.42;53.75
31483;BME280;18103;52.246;8.052;2023-02-15T15:02:40;101235.22;;;13.47;53.89
31483;BME280;18103;52.246;8.052;2023-02-15T15:05:34;101235.84;;;13.39;53.54
31483;BME280;18103;52.246;8.052;2023-02-15T15:08:02;101232.88;;;13.31;53.89
31483;BME280;18103;52.246;8.052;2023-02-15T15:10:41;101236.06;;;13.12;53.89
31483;BME280;18103;52.246;8.052;2023-02-15T15:19:03;101232.59;;;13.11;54.32
31483;BME280;18103;52.246;8.052;2023-02-15T15:27:42;101236.53;;;12.81;54.96
31483;BME280;18103;52.246;8.052;2023-02-15T15:32:56;101234.56;;;12.72;55.82